Norfolk, NE (68701)

12:44 CDT le 28 juillet 2015 (GMT -0500)
West Central - Norfolk | | Change Station
CLOSE
Current Station
Stations météorologiques personnelles
Location: Norfolk, NE
Altitude: 1640 ft
Stations météo à proximité

Alt. 1640 ft 42.04 °N, 97.45 °W | Updated 6 seconds ago

Couvert
Couvert
72.5 ° F
Paraît 73 ° F
N
2.8
Vent Variable Vent de ONO
Gusts 4.6 mph

Aujourd'hui
Haut(e) -- | Bas -- ° F
--% Risque de précip.
Hier
Haut(e) -- | Bas -- ° F
Precip. -- pouce
6:18 AM 8:52 PM
Lune gibbeuse croissante, 90% visible
Pression 29.85 pouce
Visibilité 10.0 Miles terrestres
Nuages Couvert 700 ft
indice de chaleur 73 ° F
Point de rosée 66 ° F
Humidité 79%
Précipitations 0.02 pouce
Profondeur de la couche neigeuse Non disponible.
UV 3 sur 12
Pollen 6.00 sur 12
Qualité de l'air Non disponible.
Flu Activity Non disponible.
METAR KOFK 281656Z AUTO 33013G22KT 10SM OVC007 23/21 A2989 RMK AO2 SLP107 T02330211

More Conditions Fewer Conditions

Pression 29.85 pouce
Visibilité 10.0 Miles terrestres
Nuages Couvert 700 ft
indice de chaleur 73 ° F
Point de rosée 66 ° F
Humidité 79%
Précipitations 0.02 pouce
Profondeur de la couche neigeuse Non disponible.
UV 3 sur 12
Pollen 6.00 sur 12
Qualité de l'air Non disponible.
Flu Activity Non disponible.
METAR KOFK 281656Z AUTO 33013G22KT 10SM OVC007 23/21 A2989 RMK AO2 SLP107 T02330211

More Conditions Fewer Conditions

10-Day Weather Forecast

×

Almanac

Astronomie

Jul. 28, 2015 Lever Coucher
Temps réel
Crépuscule civil
Crépuscule nautique
Crépuscule astronomique
Lune
Durée de lumière visible
Longueur du jour
Tomorrow will be .
, % of the Moon is Illuminated

Extrêmes aujourd'hui

State Highs State Lows

Community

WunderPhotos

Upload Photos

1,841,900 Photos téléchargées !

WunderBlogs® & News

Nearby

Qualité de l'air

  Qualité de l'air Indice de la qualité de l'air Polluant
Not available.

Épaisseur de neige

Station Depth Altitude

Activité sismique

Ville Distance Mag. Time & Date
Minimum magnitude displayed is 2.5.

Températures des eaux côtières

Lieu Température

Stations

Stations météo à proximité

Emplacement de la station Température Refroidissement éolien Point de rosée Humidité Vent Precip. Alt. Mise à jour Type